North Augusta, South Carolina
Current Conditions -  °F | °C
As of 4:53 AM on Tuesday 21 Oct 2014 (Local Time) from KDNL Reporting Station
Clear Clear  
Wind Chill: 58°   Ceiling: Unl
Heat Index: 58°   Visibility: 10mi
Dew Point: 50°   Wind: 0mph
Humidity: 75%   Direction: NA
Pressure: 29.97"   Gusts: NA
Location:  33.5°N, 81.97°W
Report Text: KDNL 210853Z AUTO 00000KT 10SM CLR 14/10 A2997 RMK AO2 SLP144 T01440100 56008
Loading
Personal Weather Stations






























Interactive Weather Map
Tropical Storm Tracking
New forecast layout! Learn more

10-Day Weather Forecast

Advertisements
Track Severe Weather on mobile